Time;durP1;ratioP1;P1;durP2;ratioP2;P2;SDS_P1;SDS_P2;PMS_P1;PMS_P2;Temp;Humidity;BMP_temperature;BMP_pressure;BME280_temperature;BME280_humidity;BME280_pressure;Samples;Min_cycle;Max_cycle;Signal;HPM_P1;HPM_P2
2022/06/08 00:02:17;;;;;;;10.23;4.70;;;12.10;99.90;;;;;;5043612;28;20045;-63
2022/06/08 00:04:43;;;;;;;8.98;4.75;;;12.10;99.90;;;;;;5049097;28;20088;-63
2022/06/08 00:07:09;;;;;;;8.80;3.83;;;12.10;99.90;;;;;;5049367;28;20234;-64
2022/06/08 00:09:35;;;;;;;9.50;4.60;;;12.10;99.90;;;;;;5049685;28;20045;-63
2022/06/08 00:12:03;;;;;;;8.10;4.40;;;12.00;99.90;;;;;;5039245;28;20493;-63
2022/06/08 00:14:28;;;;;;;12.70;4.90;;;12.00;99.90;;;;;;5049928;28;20055;-63
2022/06/08 00:16:54;;;;;;;10.00;4.30;;;12.00;99.90;;;;;;5049320;28;20445;-64
2022/06/08 00:19:20;;;;;;;9.93;4.72;;;12.00;99.90;;;;;;5049784;28;20049;-62
2022/06/08 00:21:45;;;;;;;11.27;4.47;;;12.00;99.90;;;;;;5049317;28;20049;-63
2022/06/08 00:24:11;;;;;;;8.75;4.70;;;12.00;99.90;;;;;;5064927;28;20129;-64
2022/06/08 00:26:37;;;;;;;9.13;4.55;;;11.90;99.90;;;;;;5065069;28;20398;-64
2022/06/08 00:29:04;;;;;;;8.60;4.38;;;11.90;99.90;;;;;;5050380;28;20304;-62
2022/06/08 00:31:30;;;;;;;8.23;4.55;;;11.90;99.90;;;;;;5053426;28;20126;-63
2022/06/08 00:33:56;;;;;;;11.10;5.38;;;11.90;99.90;;;;;;5052825;28;20493;-62
2022/06/08 00:36:21;;;;;;;10.05;4.65;;;11.90;99.90;;;;;;5069162;28;20132;-63
2022/06/08 00:38:47;;;;;;;10.38;5.13;;;11.90;99.90;;;;;;5068971;28;20113;-62
2022/06/08 00:41:43;;;;;;;9.50;5.20;;;11.90;99.90;;;;;;5052610;28;20128;-63
2022/06/08 00:44:32;;;;;;;8.50;4.90;;;11.80;99.90;;;;;;5052061;28;20048;-62
2022/06/08 00:47:00;;;;;;;13.55;5.68;;;11.80;99.90;;;;;;5052896;28;20056;-63
2022/06/08 00:49:41;;;;;;;8.07;4.72;;;11.80;99.90;;;;;;5052375;28;20045;-63
2022/06/08 00:52:07;;;;;;;13.32;5.43;;;11.80;99.90;;;;;;5050477;28;20049;-62
2022/06/08 00:54:36;;;;;;;11.65;5.40;;;11.80;99.90;;;;;;5053156;28;20051;-63
2022/06/08 00:57:10;;;;;;;9.00;5.07;;;11.80;99.90;;;;;;5051814;28;20190;-62
2022/06/08 00:59:47;;;;;;;10.50;5.90;;;11.70;99.90;;;;;;5039783;28;20052;-64
2022/06/08 01:02:13;;;;;;;14.55;6.75;;;11.70;99.90;;;;;;5052699;28;20076;-63
2022/06/08 01:04:39;;;;;;;15.68;6.22;;;11.70;99.90;;;;;;5052206;28;20107;-63
2022/06/08 01:07:05;;;;;;;13.32;6.18;;;11.70;99.90;;;;;;5052250;28;20041;-63
2022/06/08 01:09:39;;;;;;;10.90;5.25;;;11.70;99.90;;;;;;5050460;28;20060;-63
2022/06/08 01:12:18;;;;;;;12.55;5.75;;;11.70;99.90;;;;;;5044556;28;20049;-63
2022/06/08 01:14:44;;;;;;;15.52;6.50;;;11.60;99.90;;;;;;5051936;28;20057;-64
2022/06/08 01:17:13;;;;;;;10.93;5.50;;;11.60;99.90;;;;;;5052602;28;20037;-63
2022/06/08 01:19:44;;;;;;;11.50;5.60;;;11.60;99.90;;;;;;5051071;28;20049;-63
2022/06/08 01:22:13;;;;;;;13.20;5.40;;;11.60;99.90;;;;;;5038346;28;20052;-62
2022/06/08 01:24:40;;;;;;;10.15;5.25;;;11.60;99.90;;;;;;5051951;28;20044;-63
2022/06/08 01:27:31;;;;;;;11.68;5.45;;;11.60;99.90;;;;;;5066282;28;20108;-62
2022/06/08 01:30:12;;;;;;;11.23;5.40;;;11.60;99.90;;;;;;5044118;28;20105;-63
2022/06/08 01:33:16;;;;;;;10.80;5.70;;;11.50;99.90;;;;;;5048528;28;20489;-62
2022/06/08 01:35:48;;;;;;;9.52;5.53;;;;;;;;;;5051022;28;20130;-63
2022/06/08 01:38:34;;;;;;;12.65;5.60;;;11.50;99.90;;;;;;5050424;28;20081;-62
2022/06/08 01:41:08;;;;;;;13.55;5.50;;;11.50;99.90;;;;;;5052110;28;20120;-63
2022/06/08 01:43:51;;;;;;;8.15;5.30;;;11.40;99.90;;;;;;5052026;28;20053;-62
2022/06/08 01:46:22;;;;;;;9.35;5.15;;;11.40;99.90;;;;;;5050571;28;20799;-63
2022/06/08 01:48:55;;;;;;;11.88;6.07;;;11.40;99.90;;;;;;5049938;28;20051;-63
2022/06/08 01:51:39;;;;;;;11.48;5.63;;;11.50;99.90;;;;;;5051068;28;20063;-63
2022/06/08 01:54:14;;;;;;;12.90;6.13;;;11.40;99.90;;;;;;5051479;28;20056;-64
2022/06/08 01:56:39;;;;;;;;;;;11.40;99.90;;;;;;5052627;28;20122;-63
2022/06/08 01:59:27;;;;;;;11.60;6.38;;;11.40;99.90;;;;;;5048252;28;20355;-63
2022/06/08 02:02:21;;;;;;;8.40;5.80;;;11.40;99.90;;;;;;5052420;28;20110;-63
2022/06/08 02:05:06;;;;;;;8.35;5.97;;;11.40;99.90;;;;;;5052145;28;20132;-63
2022/06/08 02:07:58;;;;;;;8.30;5.47;;;11.40;99.90;;;;;;5052161;28;20839;-61
2022/06/08 02:10:33;;;;;;;8.50;5.72;;;11.30;99.90;;;;;;5049449;28;20115;-62
2022/06/08 02:13:11;;;;;;;7.00;5.47;;;11.40;99.90;;;;;;5039288;28;20047;-63
2022/06/08 02:15:43;;;;;;;11.00;5.72;;;11.30;99.90;;;;;;5051525;28;20053;-62
2022/06/08 02:18:23;;;;;;;11.95;6.03;;;11.30;99.90;;;;;;5051565;28;20394;-64
2022/06/08 02:21:12;;;;;;;10.18;5.88;;;11.30;99.90;;;;;;5047511;28;20052;-62
2022/06/08 02:23:47;;;;;;;10.43;5.90;;;11.20;99.90;;;;;;5051596;28;20144;-63
2022/06/08 02:26:17;;;;;;;11.82;5.85;;;11.30;99.90;;;;;;5050848;28;20055;-64
2022/06/08 02:28:52;;;;;;;10.02;6.65;;;11.30;99.90;;;;;;5049825;28;20135;-63
2022/06/08 02:31:23;;;;;;;12.82;6.18;;;11.30;99.90;;;;;;5048573;28;20079;-63
2022/06/08 02:36:49;;;;;;;10.45;6.07;;;11.30;99.90;;;;;;5040480;28;20091;-63
2022/06/08 02:39:20;;;;;;;12.73;6.13;;;11.30;99.90;;;;;;5050375;28;20091;-63
2022/06/08 02:41:50;;;;;;;12.95;6.85;;;11.20;99.90;;;;;;5051496;28;20044;-63
2022/06/08 02:44:21;;;;;;;12.02;6.90;;;11.20;99.90;;;;;;5050781;28;20456;-63
2022/06/08 02:46:51;;;;;;;13.93;6.65;;;11.20;99.90;;;;;;5049986;28;20102;-63
2022/06/08 02:49:17;;;;;;;13.38;6.88;;;11.30;99.90;;;;;;5041910;28;20483;-62
2022/06/08 02:51:49;;;;;;;9.10;6.43;;;11.30;99.90;;;;;;5048149;28;20052;-61
2022/06/08 02:54:24;;;;;;;15.60;6.80;;;11.30;99.90;;;;;;5050631;28;20059;-63
2022/06/08 02:57:11;;;;;;;17.27;8.00;;;11.30;99.90;;;;;;5037102;28;20053;-64
2022/06/08 02:59:52;;;;;;;10.48;6.97;;;11.30;99.90;;;;;;5043819;28;20197;-62
2022/06/08 03:02:28;;;;;;;11.05;7.63;;;11.30;99.90;;;;;;5049396;28;20045;-63
2022/06/08 03:05:02;;;;;;;12.63;7.88;;;11.30;99.90;;;;;;5046255;28;20048;-64
2022/06/08 03:07:33;;;;;;;12.30;7.88;;;11.30;99.90;;;;;;5048821;28;20459;-65
2022/06/08 03:10:05;;;;;;;12.95;8.40;;;11.30;99.90;;;;;;5032925;28;20038;-62
2022/06/08 03:12:34;;;;;;;13.82;8.50;;;11.30;99.90;;;;;;5035271;28;20061;-63
2022/06/08 03:15:02;;;;;;;12.23;8.00;;;11.30;99.90;;;;;;5042137;28;20049;-63
2022/06/08 03:17:32;;;;;;;11.52;7.60;;;11.30;99.90;;;;;;5050147;28;20053;-63
2022/06/08 03:19:58;;;;;;;18.13;8.38;;;11.30;99.90;;;;;;5048735;28;21007;-63
2022/06/08 03:22:24;;;;;;;13.23;8.65;;;11.30;99.90;;;;;;5048919;28;20123;-63
2022/06/08 03:24:50;;;;;;;13.55;8.20;;;11.30;99.90;;;;;;5049399;28;20045;-63
2022/06/08 03:27:16;;;;;;;14.98;8.85;;;11.30;99.90;;;;;;5049172;28;20147;-65
2022/06/08 03:29:42;;;;;;;15.95;9.15;;;11.30;99.90;;;;;;5048938;28;20143;-63
2022/06/08 03:32:07;;;;;;;13.60;8.95;;;11.30;99.90;;;;;;5043388;28;20071;-64
2022/06/08 03:34:33;;;;;;;11.70;8.48;;;11.20;99.90;;;;;;5050040;28;20127;-63
2022/06/08 03:36:59;;;;;;;11.63;8.60;;;11.30;99.90;;;;;;5050219;28;20045;-64
2022/06/08 03:39:24;;;;;;;13.27;8.93;;;11.20;99.90;;;;;;5049632;28;20056;-62
2022/06/08 03:41:50;;;;;;;14.05;9.07;;;11.30;99.90;;;;;;5044850;28;20056;-62
2022/06/08 03:44:16;;;;;;;17.60;9.98;;;11.20;99.90;;;;;;5050020;28;20375;-63
2022/06/08 03:46:49;;;;;;;14.15;10.05;;;11.20;99.90;;;;;;5048259;28;20128;-64
2022/06/08 03:49:15;;;;;;;17.33;10.30;;;11.30;99.90;;;;;;5050302;28;20142;-64
2022/06/08 03:51:44;;;;;;;14.95;10.13;;;11.30;99.90;;;;;;5047181;28;20072;-63
2022/06/08 03:54:16;;;;;;;16.83;10.02;;;11.30;99.90;;;;;;5048860;28;20044;-63
2022/06/08 03:56:46;;;;;;;17.75;10.27;;;11.30;99.90;;;;;;5049604;28;20089;-63
2022/06/08 03:59:12;;;;;;;19.70;11.07;;;11.30;99.90;;;;;;5049936;28;20057;-64
2022/06/08 04:01:38;;;;;;;18.67;10.93;;;11.30;99.90;;;;;;5081801;28;20144;-63
2022/06/08 04:04:04;;;;;;;16.08;10.73;;;11.30;99.90;;;;;;5048084;28;20547;-63
2022/06/08 04:06:30;;;;;;;16.65;10.63;;;11.40;99.90;;;;;;5048051;28;20048;-63
2022/06/08 04:08:56;;;;;;;16.27;10.63;;;11.40;99.90;;;;;;5050174;28;20118;-63
2022/06/08 04:11:22;;;;;;;18.50;11.10;;;11.40;99.90;;;;;;5032220;28;20088;-65
2022/06/08 04:13:47;;;;;;;14.93;10.82;;;11.50;99.90;;;;;;5048254;28;20044;-64
2022/06/08 04:16:15;;;;;;;14.95;10.77;;;11.40;99.90;;;;;;5048529;28;20508;-63
2022/06/08 04:18:41;;;;;;;17.08;11.20;;;11.50;99.90;;;;;;5049164;28;20064;-62
2022/06/08 04:21:09;;;;;;;19.33;9.82;;;11.50;99.90;;;;;;5049931;28;20124;-63
2022/06/08 04:23:35;;;;;;;17.55;10.10;;;11.60;99.90;;;;;;5042036;28;20060;-64
2022/06/08 04:26:02;;;;;;;13.93;10.07;;;11.70;99.90;;;;;;5025077;28;20147;-64
2022/06/08 04:28:29;;;;;;;15.02;10.27;;;11.80;99.90;;;;;;5048912;28;20132;-64
2022/06/08 04:30:54;;;;;;;14.38;10.05;;;11.80;99.90;;;;;;5048311;28;20099;-63
2022/06/08 04:33:21;;;;;;;15.20;9.68;;;11.90;99.90;;;;;;5073681;28;20036;-64
2022/06/08 04:35:47;;;;;;;14.50;9.43;;;12.00;99.90;;;;;;5049059;28;20083;-64
2022/06/08 04:38:13;;;;;;;15.95;10.13;;;12.10;99.90;;;;;;5049807;28;20089;-63
2022/06/08 04:40:40;;;;;;;11.68;8.65;;;12.30;99.90;;;;;;5047365;28;20049;-63
2022/06/08 04:43:07;;;;;;;18.88;9.32;;;12.40;99.90;;;;;;5048650;28;20049;-64
2022/06/08 04:45:35;;;;;;;13.18;8.70;;;12.70;99.90;;;;;;5031890;28;20316;-64
2022/06/08 04:48:02;;;;;;;13.13;7.97;;;13.10;99.90;;;;;;5049596;28;20060;-64
2022/06/08 04:50:28;;;;;;;11.25;8.60;;;13.90;99.90;;;;;;5048079;28;20061;-66
2022/06/08 04:52:54;;;;;;;11.60;8.02;;;14.60;99.90;;;;;;5047381;28;20066;-64
2022/06/08 04:55:21;;;;;;;13.38;8.90;;;14.80;99.90;;;;;;5048184;28;20494;-63
2022/06/08 04:57:47;;;;;;;11.68;9.30;;;14.70;99.90;;;;;;5048403;28;20072;-63
2022/06/08 05:00:21;;;;;;;12.50;9.55;;;14.70;99.90;;;;;;5049116;28;20053;-62
2022/06/08 05:02:48;;;;;;;14.50;10.18;;;14.70;99.90;;;;;;5046414;28;20048;-63
2022/06/08 05:05:27;;;;;;;13.80;10.38;;;14.80;99.90;;;;;;5049017;28;20041;-64
2022/06/08 05:07:54;;;;;;;11.88;9.50;;;15.20;99.90;;;;;;5047490;28;20565;-64
2022/06/08 05:10:21;;;;;;;14.85;10.38;;;15.30;99.90;;;;;;5032747;28;20475;-64
2022/06/08 05:12:48;;;;;;;15.85;11.20;;;15.20;99.90;;;;;;5022787;28;20052;-63
2022/06/08 05:15:24;;;;;;;17.95;11.15;;;15.10;99.90;;;;;;5044829;28;20052;-63
2022/06/08 05:17:49;;;;;;;15.85;10.95;;;14.90;99.90;;;;;;5051188;28;20434;-64
2022/06/08 05:20:16;;;;;;;13.85;10.23;;;14.70;99.90;;;;;;5050090;28;20069;-64
2022/06/08 05:22:44;;;;;;;16.20;11.25;;;14.50;99.90;;;;;;5018510;28;20053;-63
2022/06/08 05:25:13;;;;;;;17.10;12.63;;;14.40;99.90;;;;;;5050076;28;20044;-64
2022/06/08 05:27:39;;;;;;;20.10;13.07;;;14.30;99.90;;;;;;5046722;28;20049;-63
2022/06/08 05:30:08;;;;;;;15.40;11.82;;;14.20;99.90;;;;;;5048338;28;20398;-64
2022/06/08 05:32:34;;;;;;;17.45;12.05;;;14.10;99.90;;;;;;5080382;28;20042;-65
2022/06/08 05:34:59;;;;;;;17.25;12.73;;;14.00;99.90;;;;;;5049898;28;20040;-63
2022/06/08 05:37:25;;;;;;;17.70;12.20;;;14.00;99.90;;;;;;5048457;28;20072;-62
2022/06/08 05:39:51;;;;;;;17.88;13.43;;;13.90;99.90;;;;;;5050409;28;20098;-63
2022/06/08 05:42:16;;;;;;;20.50;13.65;;;13.90;99.90;;;;;;5049760;28;20033;-64
2022/06/08 05:44:42;;;;;;;18.08;13.80;;;13.80;99.90;;;;;;5050562;28;20049;-63
2022/06/08 05:47:07;;;;;;;22.00;13.80;;;13.80;99.90;;;;;;5052498;28;20041;-64
2022/06/08 05:49:34;;;;;;;19.45;13.18;;;13.80;99.90;;;;;;5052250;28;20502;-63
2022/06/08 05:52:01;;;;;;;20.02;13.48;;;13.90;99.90;;;;;;5051585;28;20114;-63
2022/06/08 05:54:28;;;;;;;15.90;13.45;;;13.90;99.90;;;;;;5048444;28;20048;-63
2022/06/08 05:56:54;;;;;;;19.63;13.80;;;13.90;99.90;;;;;;5040792;28;20726;-63
2022/06/08 05:59:20;;;;;;;20.08;13.57;;;14.00;99.90;;;;;;5042983;28;20136;-64
2022/06/08 06:01:45;;;;;;;20.35;13.57;;;14.00;99.90;;;;;;5042778;28;20095;-63
2022/06/08 06:04:12;;;;;;;17.85;13.20;;;14.10;99.90;;;;;;5038152;28;20041;-64
2022/06/08 06:06:43;;;;;;;23.58;14.10;;;14.20;99.90;;;;;;5044292;28;20041;-64
2022/06/08 06:09:10;;;;;;;19.52;13.82;;;14.30;99.90;;;;;;5039080;28;20057;-64
2022/06/08 06:11:37;;;;;;;20.42;13.50;;;14.40;99.90;;;;;;5043460;28;20115;-63
2022/06/08 06:14:04;;;;;;;20.58;14.02;;;14.50;99.90;;;;;;5042235;28;20061;-64
2022/06/08 06:16:30;;;;;;;17.67;13.57;;;14.70;99.90;;;;;;5037274;28;20491;-64
2022/06/08 06:18:56;;;;;;;18.42;12.93;;;15.00;99.90;;;;;;5031504;28;20061;-63
2022/06/08 06:21:25;;;;;;;16.70;12.73;;;15.50;99.90;;;;;;5031758;28;20053;-63
2022/06/08 06:23:55;;;;;;;18.08;12.20;;;15.90;99.90;;;;;;5043617;28;20041;-63
2022/06/08 06:26:21;;;;;;;16.33;11.65;;;16.00;99.90;;;;;;5045862;28;20143;-63
2022/06/08 06:28:47;;;;;;;16.58;12.23;;;16.20;99.90;;;;;;5051378;28;20545;-63
2022/06/08 06:31:34;;;;;;;13.57;10.98;;;16.50;99.90;;;;;;5037630;28;20123;-63
2022/06/08 06:34:00;;;;;;;14.02;11.02;;;16.80;99.90;;;;;;5047341;28;20575;-62
2022/06/08 06:36:26;;;;;;;14.60;10.30;;;17.40;99.90;;;;;;5050886;28;20040;-64
2022/06/08 06:38:52;;;;;;;13.10;10.38;;;17.70;99.90;;;;;;5046998;28;20443;-63
2022/06/08 06:41:19;;;;;;;11.63;8.63;;;17.90;99.90;;;;;;5050753;28;20053;-63
2022/06/08 06:43:45;;;;;;;16.48;9.82;;;18.20;99.90;;;;;;5045388;28;20120;-66
2022/06/08 06:46:13;;;;;;;10.65;7.97;;;18.40;99.90;;;;;;5050039;28;20542;-66
2022/06/08 06:48:38;;;;;;;15.30;10.15;;;18.60;99.90;;;;;;5049942;28;20118;-63
2022/06/08 06:51:05;;;;;;;13.48;9.63;;;19.00;99.90;;;;;;5032714;28;20490;-65
2022/06/08 06:53:31;;;;;;;12.88;9.88;;;19.30;99.90;;;;;;5048681;28;20132;-64
2022/06/08 06:55:57;;;;;;;12.07;9.18;;;20.00;99.90;;;;;;5050284;28;20129;-63
2022/06/08 06:58:23;;;;;;;13.95;9.73;;;20.10;99.90;;;;;;5049195;28;20053;-63
2022/06/08 07:00:49;;;;;;;13.30;8.60;;;20.00;99.90;;;;;;5049225;28;20053;-65
2022/06/08 07:03:16;;;;;;;12.63;8.98;;;20.20;99.90;;;;;;5035075;28;20053;-63
2022/06/08 07:05:42;;;;;;;15.10;9.20;;;20.40;99.90;;;;;;5050337;28;20053;-64
2022/06/08 07:08:08;;;;;;;12.15;9.23;;;20.70;99.90;;;;;;5050593;28;20071;-64
2022/06/08 07:10:36;;;;;;;11.45;8.98;;;21.00;99.90;;;;;;5049555;28;20521;-63
2022/06/08 07:13:02;;;;;;;13.07;8.65;;;20.90;99.90;;;;;;5048719;28;20048;-63
2022/06/08 07:15:28;;;;;;;11.02;8.52;;;20.60;99.90;;;;;;5082691;28;20411;-63
2022/06/08 07:17:55;;;;;;;10.65;8.18;;;20.60;99.90;;;;;;5050102;28;20048;-64
2022/06/08 07:20:21;;;;;;;11.60;8.93;;;20.60;99.90;;;;;;5048519;28;20509;-63
2022/06/08 07:22:47;;;;;;;11.00;8.15;;;20.40;99.90;;;;;;5048501;28;20072;-64
2022/06/08 07:25:14;;;;;;;13.68;8.73;;;20.10;99.90;;;;;;5048877;28;20053;-64
2022/06/08 07:27:41;;;;;;;12.13;8.75;;;19.70;99.90;;;;;;5049290;28;20037;-64
2022/06/08 07:30:08;;;;;;;10.27;8.55;;;19.70;99.90;;;;;;5049622;28;20053;-62
2022/06/08 07:32:35;;;;;;;13.80;8.65;;;20.10;99.90;;;;;;5049040;28;20053;-63
2022/06/08 07:35:02;;;;;;;9.73;8.27;;;20.30;99.90;;;;;;5038807;28;20049;-63
2022/06/08 07:37:28;;;;;;;11.07;7.88;;;20.70;99.90;;;;;;5042409;28;20080;-64
2022/06/08 07:39:54;;;;;;;10.48;7.22;;;21.20;99.90;;;;;;5075549;28;20060;-64
2022/06/08 07:42:21;;;;;;;9.82;7.05;;;21.50;99.90;;;;;;5045826;28;20062;-65
2022/06/08 07:44:47;;;;;;;9.45;7.63;;;21.40;99.90;;;;;;5044808;28;20053;-65
2022/06/08 07:47:14;;;;;;;9.68;6.60;;;21.50;99.90;;;;;;5062956;28;20540;-63
2022/06/08 07:49:41;;;;;;;8.60;6.55;;;21.40;99.90;;;;;;5045499;28;20060;-65
2022/06/08 07:52:10;;;;;;;8.63;6.82;;;21.20;99.90;;;;;;5036074;28;20053;-65
2022/06/08 07:54:37;;;;;;;10.15;6.22;;;21.10;99.90;;;;;;5081753;28;20102;-65
2022/06/08 07:57:04;;;;;;;8.15;6.00;;;21.10;99.90;;;;;;5047755;28;20040;-64
2022/06/08 07:59:34;;;;;;;7.13;5.40;;;21.10;99.90;;;;;;5045474;28;20126;-64
2022/06/08 08:02:01;;;;;;;10.25;6.30;;;20.90;99.90;;;;;;5042895;28;20049;-66
2022/06/08 08:04:27;;;;;;;7.22;4.80;;;20.90;99.90;;;;;;5046761;28;20045;-64
2022/06/08 08:06:53;;;;;;;8.18;4.75;;;20.80;99.90;;;;;;5043824;28;20048;-63
2022/06/08 08:09:20;;;;;;;7.50;5.00;;;20.50;99.90;;;;;;5047658;28;20136;-65
2022/06/08 08:11:49;;;;;;;6.13;4.63;;;20.50;99.90;;;;;;5042517;28;20513;-64
2022/06/08 08:14:15;;;;;;;8.40;4.80;;;20.30;99.90;;;;;;5035626;28;20079;-62
2022/06/08 08:16:45;;;;;;;8.18;5.35;;;20.20;99.90;;;;;;5049478;28;20037;-63
2022/06/08 08:19:12;;;;;;;6.90;4.85;;;20.00;99.90;;;;;;5048690;28;20048;-63
2022/06/08 08:21:38;;;;;;;7.20;5.07;;;20.10;99.90;;;;;;5047555;28;20053;-64
2022/06/08 08:24:07;;;;;;;5.82;4.05;;;20.20;99.90;;;;;;5045293;28;20091;-64
2022/06/08 08:26:34;;;;;;;6.38;4.53;;;20.40;99.90;;;;;;5049603;28;20052;-64
2022/06/08 08:29:00;;;;;;;6.22;3.78;;;20.60;99.90;;;;;;5048755;28;20049;-65
2022/06/08 08:31:26;;;;;;;6.13;4.22;;;21.10;99.90;;;;;;5072147;28;20124;-65
2022/06/08 08:33:52;;;;;;;4.80;3.85;;;21.50;99.90;;;;;;5044235;28;20051;-66
2022/06/08 08:36:18;;;;;;;7.47;4.75;;;21.70;99.90;;;;;;5040188;28;20045;-64
2022/06/08 08:38:45;;;;;;;7.25;4.10;;;21.70;99.90;;;;;;5044157;28;20051;-64
2022/06/08 08:44:04;;;;;;;5.93;3.30;;;22.40;99.90;;;;;;5040743;28;20045;-64
2022/06/08 08:46:39;;;;;;;5.32;3.08;;;22.90;99.90;;;;;;5040963;28;20081;-65
2022/06/08 08:49:19;;;;;;;4.95;2.58;;;23.40;99.90;;;;;;5042590;28;20158;-63
2022/06/08 08:51:58;;;;;;;3.22;1.90;;;23.90;99.90;;;;;;5077489;28;20600;-66
2022/06/08 08:54:38;;;;;;;4.50;2.83;;;24.00;99.90;;;;;;5047705;28;20510;-65
2022/06/08 08:57:14;;;;;;;4.85;2.53;;;23.60;99.90;;;;;;5035652;28;20052;-65
2022/06/08 08:59:45;;;;;;;4.32;2.30;;;23.20;99.90;;;;;;5031110;28;20059;-65
2022/06/08 09:03:14;;;;;;;4.82;2.17;;;22.90;99.90;;;;;;5049782;28;20052;-65
2022/06/08 09:05:17;;;;;;;3.13;1.65;;;22.80;99.90;;;;;;5044170;28;20045;-66
2022/06/08 09:07:43;;;;;;;2.88;1.98;;;23.00;99.90;;;;;;5038821;28;20110;-68
2022/06/08 09:10:24;;;;;;;3.28;1.80;;;23.60;99.90;;;;;;5049622;28;20102;-65
2022/06/08 09:12:50;;;;;;;3.67;1.80;;;24.20;99.90;;;;;;5037038;28;20052;-64
2022/06/08 09:15:21;;;;;;;3.00;1.63;;;24.60;99.90;;;;;;5044885;28;20049;-64
2022/06/08 09:17:56;;;;;;;3.03;1.40;;;25.00;99.90;;;;;;5049999;28;20444;-64
2022/06/08 09:20:31;;;;;;;3.90;1.55;;;25.00;99.90;;;;;;5050249;28;20047;-63
2022/06/08 09:23:01;;;;;;;3.53;1.40;;;24.70;99.90;;;;;;5049297;28;20371;-65
2022/06/08 09:25:34;;;;;;;2.97;1.33;;;24.60;99.90;;;;;;5043720;28;20420;-63
2022/06/08 09:28:02;;;;;;;3.08;1.50;;;24.80;99.90;;;;;;5037503;28;20111;-63
2022/06/08 09:30:46;;;;;;;3.63;1.50;;;24.80;99.90;;;;;;5045547;28;20155;-64
2022/06/08 09:33:22;;;;;;;3.80;1.60;;;24.70;99.90;;;;;;5036622;28;20532;-64
2022/06/08 09:35:58;;;;;;;2.42;1.50;;;24.30;99.90;;;;;;5035007;28;20116;-63
2022/06/08 09:38:27;;;;;;;2.80;1.58;;;23.90;99.90;;;;;;5039645;28;20059;-65
2022/06/08 09:41:26;;;;;;;4.97;1.50;;;23.80;99.90;;;;;;5048234;28;20044;-64
2022/06/08 09:44:29;;;;;;;4.35;1.88;;;23.50;99.90;;;;;;5046727;28;20057;-64
2022/06/08 09:53:22;;;;;;;3.60;1.50;;;23.70;99.90;;;;;;5031708;28;20053;-65
2022/06/08 09:56:01;;;;;;;2.35;1.40;;;24.00;99.90;;;;;;5034794;28;20053;-64
2022/06/08 09:59:00;;;;;;;3.85;1.60;;;24.20;99.90;;;;;;5042626;28;20114;-63
2022/06/08 10:01:45;;;;;;;2.80;1.42;;;24.10;99.90;;;;;;5031687;28;20512;-65
2022/06/08 10:04:37;;;;;;;3.05;1.58;;;23.90;99.90;;;;;;5034872;28;20111;-67
2022/06/08 10:07:16;;;;;;;3.42;1.48;;;24.10;99.90;;;;;;5049745;28;20041;-64
2022/06/08 10:09:48;;;;;;;3.53;1.50;;;24.00;99.90;;;;;;5037541;28;20432;-65
2022/06/08 10:12:49;;;;;;;2.13;1.10;;;23.90;99.90;;;;;;5062206;28;20105;-65
2022/06/08 10:15:38;;;;;;;3.58;1.70;;;23.90;99.90;;;;;;5047537;28;20045;-66
2022/06/08 10:18:05;;;;;;;3.08;1.70;;;23.50;99.90;;;;;;5044617;28;20054;-65
2022/06/08 10:20:51;;;;;;;3.33;1.60;;;23.50;99.90;;;;;;5033968;28;20391;-63
2022/06/08 10:23:30;;;;;;;3.33;1.75;;;23.30;99.90;;;;;;5034368;28;20045;-65
2022/06/08 10:26:22;;;;;;;4.50;2.10;;;23.20;99.90;;;;;;5040565;28;20064;-64
2022/06/08 10:28:49;;;;;;;5.53;1.90;;;23.10;99.90;;;;;;5039482;28;20037;-64
2022/06/08 10:31:40;;;;;;;2.95;1.90;;;23.00;99.90;;;;;;5042512;28;20091;-65
2022/06/08 10:34:33;;;;;;;2.95;2.13;;;23.00;99.90;;;;;;5038447;28;20060;-64
2022/06/08 10:37:24;;;;;;;3.92;2.13;;;22.90;99.90;;;;;;5038747;28;20041;-63
2022/06/08 10:39:50;;;;;;;4.57;2.22;;;22.80;99.90;;;;;;5039368;28;20060;-63
2022/06/08 10:42:39;;;;;;;6.20;2.40;;;22.60;99.90;;;;;;5042791;28;20041;-66
2022/06/08 10:45:23;;;;;;;3.33;2.50;;;22.60;99.90;;;;;;5037863;28;20430;-63
2022/06/08 10:48:11;;;;;;;3.65;2.17;;;22.70;99.90;;;;;;5040864;28;20045;-63
2022/06/08 10:50:46;;;;;;;5.72;2.83;;;22.80;99.90;;;;;;5045712;28;20048;-64
2022/06/08 10:56:32;;;;;;;5.50;2.30;;;22.90;99.90;;;;;;5040701;28;20056;-63
2022/06/08 10:59:07;;;;;;;5.20;2.90;;;22.90;99.90;;;;;;5067805;28;20089;-64
2022/06/08 11:02:01;;;;;;;5.35;2.70;;;22.80;99.90;;;;;;5030031;28;20057;-64
2022/06/08 11:04:27;;;;;;;5.15;2.20;;;22.70;99.90;;;;;;5043426;28;20055;-64
2022/06/08 11:06:58;;;;;;;3.88;2.30;;;22.80;99.90;;;;;;5045256;28;20135;-65
2022/06/08 11:09:33;;;;;;;4.18;2.60;;;22.90;99.90;;;;;;5044438;28;20053;-65
2022/06/08 11:12:11;;;;;;;5.35;2.70;;;23.00;99.90;;;;;;5038854;28;20053;-64
2022/06/08 11:14:43;;;;;;;4.60;2.55;;;23.10;99.90;;;;;;5040203;28;20486;-66
2022/06/08 11:17:30;;;;;;;4.82;3.05;;;23.00;99.90;;;;;;5043491;28;20037;-67
2022/06/08 11:20:24;;;;;;;5.68;3.05;;;23.10;99.90;;;;;;5070336;28;20057;-64
2022/06/08 11:23:05;;;;;;;6.18;2.75;;;23.10;99.90;;;;;;5037557;28;20049;-64
2022/06/08 11:26:06;;;;;;;4.93;2.60;;;23.00;99.90;;;;;;5035195;28;20122;-63
2022/06/08 11:28:39;;;;;;;4.03;2.42;;;22.80;99.90;;;;;;5043151;28;20115;-65
2022/06/08 11:31:11;;;;;;;4.57;2.93;;;22.70;99.90;;;;;;5039252;28;20052;-65
2022/06/08 11:33:56;;;;;;;6.95;2.97;;;22.50;99.90;;;;;;5039975;28;20157;-65
2022/06/08 11:36:21;;;;;;;;;;;22.30;99.90;;;;;;5042448;28;20045;-64
2022/06/08 11:38:57;;;;;;;6.55;3.40;;;22.20;99.90;;;;;;5040383;28;19925;-64
2022/06/08 11:41:41;;;;;;;6.85;3.28;;;22.10;99.90;;;;;;5047368;28;20118;-64
2022/06/08 11:44:17;;;;;;;5.95;3.40;;;21.90;99.90;;;;;;5074673;28;20053;-63
2022/06/08 11:46:53;;;;;;;4.47;3.13;;;21.70;99.90;;;;;;5079717;28;20059;-64
2022/06/08 11:49:29;;;;;;;7.18;3.50;;;21.60;99.90;;;;;;5046722;28;20122;-64
2022/06/08 11:51:55;;;;;;;7.38;3.72;;;21.50;99.90;;;;;;5039257;28;20434;-66
2022/06/08 11:54:26;;;;;;;6.20;4.07;;;21.20;99.90;;;;;;5044064;28;20053;-66
2022/06/08 11:57:00;;;;;;;7.63;3.75;;;21.10;99.90;;;;;;5043206;28;20156;-65
2022/06/08 11:59:26;;;;;;;;;;;20.80;99.90;;;;;;5044237;28;20081;-64
2022/06/08 12:02:01;;;;;;;6.95;4.03;;;20.80;99.90;;;;;;5044168;28;19976;-65
2022/06/08 12:04:30;;;;;;;6.13;4.32;;;20.60;99.90;;;;;;5042064;28;20045;-65
2022/06/08 12:06:58;;;;;;;7.00;4.20;;;20.50;99.90;;;;;;5078092;28;20482;-65
2022/06/08 12:09:37;;;;;;;6.65;3.95;;;20.40;99.90;;;;;;5075403;28;20060;-66
2022/06/08 12:12:15;;;;;;;6.22;4.20;;;20.50;99.90;;;;;;5041076;28;20409;-66
2022/06/08 12:14:41;;;;;;;5.85;4.05;;;20.60;99.90;;;;;;5042564;28;20044;-65
2022/06/08 12:17:34;;;;;;;6.47;4.35;;;20.60;99.90;;;;;;5077452;28;20040;-65
2022/06/08 12:20:02;;;;;;;6.55;4.28;;;20.60;99.90;;;;;;5040861;28;20501;-66
2022/06/08 12:22:36;;;;;;;7.90;4.57;;;20.60;99.90;;;;;;5036477;28;20067;-64
2022/06/08 12:25:21;;;;;;;7.85;4.68;;;20.50;99.90;;;;;;5035124;28;20126;-67
2022/06/08 12:28:06;;;;;;;8.15;4.50;;;20.40;99.90;;;;;;5042587;28;20068;-65
2022/06/08 12:30:47;;;;;;;7.60;4.50;;;20.40;99.90;;;;;;5081736;28;20052;-65
2022/06/08 12:33:16;;;;;;;9.30;5.40;;;20.50;99.90;;;;;;5045682;28;20061;-64
2022/06/08 12:35:56;;;;;;;7.28;4.43;;;20.60;99.90;;;;;;5046252;28;20372;-65
2022/06/08 12:38:33;;;;;;;7.07;4.80;;;20.70;99.90;;;;;;5046498;28;20065;-64
2022/06/08 12:41:06;;;;;;;11.07;5.00;;;20.80;99.90;;;;;;5049536;28;20070;-65
2022/06/08 12:43:52;;;;;;;6.72;4.47;;;20.90;99.90;;;;;;5051240;28;20049;-66
2022/06/08 12:46:28;;;;;;;6.93;4.60;;;20.90;99.90;;;;;;5051707;28;20494;-68
2022/06/08 12:48:54;;;;;;;6.25;4.22;;;20.90;99.90;;;;;;5039380;28;20056;-65
2022/06/08 12:51:29;;;;;;;5.70;3.90;;;20.50;99.90;;;;;;5042207;28;20041;-65
2022/06/08 12:53:59;;;;;;;7.40;4.13;;;20.30;99.90;;;;;;5042880;28;20040;-65
2022/06/08 12:56:26;;;;;;;7.82;4.63;;;20.10;99.90;;;;;;5048824;28;20056;-65
2022/06/08 12:58:53;;;;;;;6.47;4.43;;;19.90;99.90;;;;;;5044839;28;20141;-64
2022/06/08 13:01:20;;;;;;;6.35;3.15;;;19.70;99.90;;;;;;5064776;28;20080;-65
2022/06/08 13:03:47;;;;;;;4.78;2.75;;;19.60;99.90;;;;;;5041053;28;20425;-65
2022/06/08 13:06:12;;;;;;;5.25;1.90;;;19.40;99.90;;;;;;5049290;28;20091;-65
2022/06/08 13:08:39;;;;;;;3.92;1.90;;;19.20;99.90;;;;;;5046356;28;20060;-67
2022/06/08 13:11:12;;;;;;;4.10;1.67;;;19.20;99.90;;;;;;5047024;28;20049;-64
2022/06/08 13:13:39;;;;;;;3.80;1.50;;;19.10;99.90;;;;;;5046020;28;20060;-66
2022/06/08 13:16:23;;;;;;;3.28;1.60;;;19.10;99.90;;;;;;5081683;28;20048;-65
2022/06/08 13:18:51;;;;;;;4.80;1.92;;;19.00;99.90;;;;;;5043853;28;20060;-64
2022/06/08 13:21:18;;;;;;;4.10;1.83;;;18.90;99.90;;;;;;5046909;28;20076;-65